Time;durP1;ratioP1;P1;durP2;ratioP2;P2;SDS_P1;SDS_P2;PMS_P1;PMS_P2;Temp;Humidity;BMP_temperature;BMP_pressure;BME280_temperature;BME280_humidity;BME280_pressure;Samples;Min_cycle;Max_cycle;Signal;HPM_P1;HPM_P2
2023/04/04 00:01:24;;;;;;;5.57;2.00;;;2.90;99.90;;;;;;5053520;28;20048;-77
2023/04/04 00:03:50;;;;;;;4.95;2.20;;;2.90;99.90;;;;;;5054715;28;20045;-77
2023/04/04 00:06:17;;;;;;;5.68;2.30;;;2.90;99.90;;;;;;5055897;28;20071;-77
2023/04/04 00:08:42;;;;;;;5.20;2.38;;;2.80;99.90;;;;;;5051008;28;20052;-77
2023/04/04 00:11:08;;;;;;;6.72;2.58;;;2.70;99.90;;;;;;5051384;28;20493;-77
2023/04/04 00:13:33;;;;;;;5.75;2.55;;;2.70;99.90;;;;;;5046686;28;20041;-77
2023/04/04 00:15:59;;;;;;;6.88;2.50;;;2.60;99.90;;;;;;5071390;28;20080;-77
2023/04/04 00:18:25;;;;;;;6.78;2.35;;;2.70;99.90;;;;;;5070326;28;20048;-77
2023/04/04 00:20:50;;;;;;;6.05;2.60;;;2.70;99.90;;;;;;5054852;28;20037;-76
2023/04/04 00:23:16;;;;;;;6.22;2.20;;;2.70;99.90;;;;;;5068279;28;20036;-77
2023/04/04 00:25:43;;;;;;;9.07;2.50;;;2.60;99.90;;;;;;5034874;28;20071;-77
2023/04/04 00:28:08;;;;;;;6.85;2.35;;;2.60;99.90;;;;;;5051652;28;20049;-77
2023/04/04 00:30:34;;;;;;;7.30;3.00;;;2.60;99.90;;;;;;5054848;28;20033;-77
2023/04/04 00:33:00;;;;;;;7.85;2.90;;;2.50;99.90;;;;;;5054810;28;20432;-77
2023/04/04 00:35:26;;;;;;;7.13;2.88;;;2.50;99.90;;;;;;5054721;28;20127;-77
2023/04/04 00:37:52;;;;;;;6.72;2.55;;;2.50;99.90;;;;;;5041805;28;20032;-77
2023/04/04 00:40:18;;;;;;;7.15;3.00;;;2.40;99.90;;;;;;5057941;28;20128;-77
2023/04/04 00:42:44;;;;;;;6.60;2.78;;;2.30;99.90;;;;;;5072377;28;20040;-77
2023/04/04 00:45:10;;;;;;;7.68;3.13;;;2.30;99.90;;;;;;5074668;28;20599;-77
2023/04/04 00:47:37;;;;;;;7.47;3.00;;;2.30;99.90;;;;;;5057024;28;20418;-77
2023/04/04 00:50:03;;;;;;;6.85;2.83;;;2.20;99.90;;;;;;5057693;28;20040;-77
2023/04/04 00:52:29;;;;;;;9.60;3.15;;;2.30;99.90;;;;;;5055857;28;20052;-77
2023/04/04 00:54:55;;;;;;;7.57;3.03;;;2.30;99.90;;;;;;5074331;28;20106;-77
2023/04/04 00:57:21;;;;;;;6.25;3.05;;;2.20;99.90;;;;;;5074611;28;20040;-76
2023/04/04 00:59:47;;;;;;;8.25;3.05;;;2.20;99.90;;;;;;5074539;28;20051;-77
2023/04/04 01:02:13;;;;;;;7.55;3.53;;;2.20;99.90;;;;;;5056790;28;20032;-76
2023/04/04 01:04:39;;;;;;;10.07;3.35;;;2.20;99.90;;;;;;5037778;28;20076;-76
2023/04/04 01:07:04;;;;;;;7.95;3.53;;;2.20;99.90;;;;;;5055068;28;20032;-76
2023/04/04 01:09:30;;;;;;;8.05;3.30;;;2.20;99.90;;;;;;5073119;28;20089;-78
2023/04/04 01:11:56;;;;;;;9.30;3.10;;;2.20;99.90;;;;;;5071475;28;20145;-78
2023/04/04 01:14:22;;;;;;;6.80;2.90;;;2.20;99.90;;;;;;5053666;28;20045;-77
2023/04/04 01:16:50;;;;;;;9.13;3.40;;;2.10;99.90;;;;;;5068627;28;20040;-77
2023/04/04 01:19:27;;;;;;;7.38;3.20;;;2.20;99.90;;;;;;5057173;28;20040;-77
2023/04/04 01:21:53;;;;;;;9.32;3.30;;;2.20;99.90;;;;;;5053264;28;20508;-77
2023/04/04 01:24:21;;;;;;;8.20;3.30;;;2.20;99.90;;;;;;5070049;28;20040;-77
2023/04/04 01:26:49;;;;;;;8.57;2.70;;;2.20;99.90;;;;;;5073919;28;20086;-77
2023/04/04 01:29:15;;;;;;;7.53;2.70;;;2.20;99.90;;;;;;5073977;28;20044;-77
2023/04/04 01:31:55;;;;;;;7.45;2.97;;;2.20;99.90;;;;;;5071214;28;20054;-77
2023/04/04 01:34:39;;;;;;;7.78;2.75;;;2.20;99.90;;;;;;5071735;28;20094;-77
2023/04/04 01:37:20;;;;;;;7.20;3.58;;;2.10;99.90;;;;;;5073981;28;20063;-77
2023/04/04 01:39:58;;;;;;;7.88;3.45;;;2.10;99.90;;;;;;5072930;28;20033;-77
2023/04/04 01:42:25;;;;;;;8.68;2.80;;;2.10;99.90;;;;;;5047021;28;20056;-77
2023/04/04 01:44:55;;;;;;;7.28;2.97;;;2.00;99.90;;;;;;5036831;28;20138;-77
2023/04/04 01:47:20;;;;;;;6.40;2.88;;;2.10;99.90;;;;;;5036923;28;20041;-78
2023/04/04 01:49:46;;;;;;;7.53;3.00;;;2.10;99.90;;;;;;5068398;28;20051;-77
2023/04/04 01:52:12;;;;;;;7.07;2.95;;;2.10;99.90;;;;;;5072296;28;20056;-77
2023/04/04 01:54:37;;;;;;;7.47;2.80;;;2.10;99.90;;;;;;5054144;28;20037;-77
2023/04/04 01:57:03;;;;;;;6.95;3.17;;;2.10;99.90;;;;;;5053261;28;20500;-76
2023/04/04 01:59:28;;;;;;;8.63;3.15;;;2.10;99.90;;;;;;5053379;28;20037;-77
2023/04/04 02:01:55;;;;;;;7.40;3.00;;;2.00;99.90;;;;;;5052559;28;20041;-76
2023/04/04 02:04:20;;;;;;;8.30;3.70;;;2.10;99.90;;;;;;5052757;28;20041;-76
2023/04/04 02:06:46;;;;;;;7.40;3.10;;;2.00;99.90;;;;;;5036345;28;20044;-76
2023/04/04 02:09:12;;;;;;;6.78;3.08;;;2.00;99.90;;;;;;5036658;28;20037;-76
2023/04/04 02:11:37;;;;;;;8.25;3.10;;;2.00;99.90;;;;;;5057919;28;20040;-76
2023/04/04 02:14:04;;;;;;;8.15;3.30;;;1.90;99.90;;;;;;5052727;28;20167;-76
2023/04/04 02:16:29;;;;;;;8.57;3.17;;;1.90;99.90;;;;;;5052938;28;20114;-76
2023/04/04 02:18:55;;;;;;;8.52;3.20;;;2.00;99.90;;;;;;5036293;28;20489;-76
2023/04/04 02:21:21;;;;;;;6.72;3.17;;;2.00;99.90;;;;;;5054635;28;20397;-76
2023/04/04 02:23:47;;;;;;;8.13;3.08;;;2.00;99.90;;;;;;5071209;28;20041;-76
2023/04/04 02:26:12;;;;;;;7.50;3.13;;;2.00;99.90;;;;;;5055944;28;20543;-75
2023/04/04 02:28:38;;;;;;;7.80;3.05;;;2.00;99.90;;;;;;5056225;28;20047;-75
2023/04/04 02:31:03;;;;;;;7.97;2.95;;;2.00;99.90;;;;;;5072141;28;20040;-76
2023/04/04 02:33:30;;;;;;;9.43;3.80;;;1.90;99.90;;;;;;5042053;28;20420;-76
2023/04/04 02:35:59;;;;;;;7.40;3.33;;;1.90;99.90;;;;;;5054557;28;20040;-75
2023/04/04 02:38:25;;;;;;;6.90;3.20;;;1.90;99.90;;;;;;5049490;28;20503;-77
2023/04/04 02:40:51;;;;;;;6.90;3.45;;;1.90;99.90;;;;;;5052722;28;20120;-75
2023/04/04 02:43:17;;;;;;;6.82;3.38;;;1.80;99.90;;;;;;5044953;28;20041;-75
2023/04/04 02:45:42;;;;;;;7.03;3.22;;;1.80;99.90;;;;;;5074560;28;20424;-75
2023/04/04 02:48:09;;;;;;;6.68;3.28;;;1.90;99.90;;;;;;5072255;28;20036;-75
2023/04/04 02:50:35;;;;;;;7.53;3.00;;;1.80;99.90;;;;;;5054395;28;20037;-75
2023/04/04 02:53:04;;;;;;;9.20;3.13;;;1.80;99.90;;;;;;5055524;28;20044;-75
2023/04/04 02:55:30;;;;;;;7.47;3.42;;;1.80;99.90;;;;;;5050084;28;20086;-76
2023/04/04 02:57:56;;;;;;;5.68;2.70;;;1.80;99.90;;;;;;5059110;28;20036;-75
2023/04/04 03:00:22;;;;;;;8.13;3.00;;;1.70;99.90;;;;;;5072020;28;20507;-75
2023/04/04 03:02:55;;;;;;;6.50;3.20;;;1.60;99.90;;;;;;5071077;28;20028;-75
2023/04/04 03:05:22;;;;;;;6.90;3.00;;;1.60;99.90;;;;;;5072056;28;20127;-75
2023/04/04 03:07:54;;;;;;;6.45;2.78;;;1.60;99.90;;;;;;5070514;28;20404;-75
2023/04/04 03:10:20;;;;;;;6.40;2.92;;;1.60;99.90;;;;;;5071671;28;20051;-75
2023/04/04 03:12:45;;;;;;;6.03;2.97;;;1.60;99.90;;;;;;5069990;28;20036;-75
2023/04/04 03:15:11;;;;;;;6.45;3.22;;;1.60;99.90;;;;;;5071907;28;20041;-75
2023/04/04 03:17:37;;;;;;;8.82;3.42;;;1.50;99.90;;;;;;5050157;28;20504;-75
2023/04/04 03:20:03;;;;;;;6.50;2.83;;;1.50;99.90;;;;;;5035293;28;20107;-74
2023/04/04 03:22:28;;;;;;;7.45;3.63;;;1.40;99.90;;;;;;5051108;28;20178;-74
2023/04/04 03:24:54;;;;;;;6.85;2.97;;;1.40;99.90;;;;;;5052049;28;20039;-74
2023/04/04 03:27:20;;;;;;;5.85;2.95;;;1.40;99.90;;;;;;5041300;28;20090;-74
2023/04/04 03:29:45;;;;;;;8.05;3.45;;;1.30;99.90;;;;;;5063460;28;20076;-74
2023/04/04 03:32:11;;;;;;;9.00;2.92;;;1.40;99.90;;;;;;5061345;28;20091;-74
2023/04/04 03:34:37;;;;;;;7.72;2.70;;;1.40;99.90;;;;;;5071715;28;20094;-74
2023/04/04 03:37:03;;;;;;;6.60;2.72;;;1.40;99.90;;;;;;5064239;28;20033;-74
2023/04/04 03:39:29;;;;;;;9.48;3.08;;;1.40;99.90;;;;;;5070843;28;20450;-75
2023/04/04 03:41:56;;;;;;;9.07;3.20;;;1.40;99.90;;;;;;5053943;28;20033;-74
2023/04/04 03:44:22;;;;;;;7.55;3.15;;;1.40;99.90;;;;;;5066190;28;20355;-74
2023/04/04 03:46:48;;;;;;;8.90;3.13;;;1.40;99.90;;;;;;5055174;28;20464;-74
2023/04/04 03:49:13;;;;;;;5.57;2.83;;;1.40;99.90;;;;;;5071121;28;20370;-74
2023/04/04 03:51:39;;;;;;;7.13;3.30;;;1.40;99.90;;;;;;5054672;28;20057;-73
2023/04/04 03:54:04;;;;;;;5.95;2.78;;;1.30;99.90;;;;;;5070565;28;20044;-74
2023/04/04 03:56:31;;;;;;;11.77;3.42;;;1.30;99.90;;;;;;5069351;28;20134;-73
2023/04/04 03:58:57;;;;;;;8.48;2.95;;;1.30;99.90;;;;;;5071543;28;20040;-73
2023/04/04 04:01:23;;;;;;;7.35;2.92;;;1.20;99.90;;;;;;5054837;28;20071;-73
2023/04/04 04:03:48;;;;;;;6.35;2.83;;;1.20;99.90;;;;;;5051279;28;20073;-75
2023/04/04 04:06:14;;;;;;;6.88;2.88;;;1.20;99.90;;;;;;5075102;28;20037;-74
2023/04/04 04:08:40;;;;;;;8.80;3.13;;;1.20;99.90;;;;;;5053288;28;20083;-75
2023/04/04 04:11:06;;;;;;;7.15;3.30;;;1.20;99.90;;;;;;5055124;28;20045;-74
2023/04/04 04:13:34;;;;;;;7.72;3.13;;;1.20;99.90;;;;;;5051410;28;20040;-74
2023/04/04 04:16:00;;;;;;;7.00;3.08;;;1.20;99.90;;;;;;5063175;28;20048;-74
2023/04/04 04:18:26;;;;;;;6.88;3.22;;;1.10;99.90;;;;;;5073278;28;20294;-74
2023/04/04 04:21:00;;;;;;;7.07;3.08;;;1.10;99.90;;;;;;5062036;28;20036;-74
2023/04/04 04:23:26;;;;;;;6.40;3.38;;;1.10;99.90;;;;;;5061813;28;20070;-74
2023/04/04 04:25:51;;;;;;;5.88;2.90;;;1.10;99.90;;;;;;5046554;28;20032;-74
2023/04/04 04:28:17;;;;;;;6.85;3.20;;;1.10;99.90;;;;;;5072325;28;20037;-74
2023/04/04 04:30:43;;;;;;;8.13;3.60;;;1.00;99.90;;;;;;5046567;28;20033;-74
2023/04/04 04:33:09;;;;;;;8.95;3.55;;;1.00;99.90;;;;;;5059899;28;20097;-74
2023/04/04 04:35:38;;;;;;;8.07;3.30;;;0.90;99.90;;;;;;5054418;28;20041;-74
2023/04/04 04:38:05;;;;;;;7.78;3.47;;;0.80;99.90;;;;;;5063329;28;20071;-74
2023/04/04 04:40:31;;;;;;;8.32;3.22;;;0.90;99.90;;;;;;5074673;28;20562;-74
2023/04/04 04:42:57;;;;;;;7.47;2.88;;;0.90;99.90;;;;;;5051137;28;20043;-74
2023/04/04 04:45:22;;;;;;;8.50;3.30;;;1.00;99.90;;;;;;5043950;28;20041;-73
2023/04/04 04:47:48;;;;;;;9.02;3.47;;;1.00;99.90;;;;;;5067168;28;20044;-73
2023/04/04 04:50:15;;;;;;;8.73;3.35;;;1.00;99.90;;;;;;5053977;28;20504;-73
2023/04/04 04:52:40;;;;;;;8.20;3.50;;;1.00;99.90;;;;;;5065523;28;20048;-73
2023/04/04 04:55:06;;;;;;;7.72;3.30;;;1.00;99.90;;;;;;5040401;28;20099;-73
2023/04/04 04:57:35;;;;;;;8.82;3.70;;;0.90;99.90;;;;;;5067740;28;20444;-74
2023/04/04 05:00:03;;;;;;;6.55;2.90;;;0.80;99.90;;;;;;5050473;28;20488;-73
2023/04/04 05:02:28;;;;;;;6.65;3.10;;;0.80;99.90;;;;;;5055056;28;20044;-75
2023/04/04 05:04:54;;;;;;;7.82;3.28;;;0.80;99.90;;;;;;5037341;28;20510;-75
2023/04/04 05:07:20;;;;;;;8.35;3.58;;;0.90;99.90;;;;;;5047903;28;20043;-74
2023/04/04 05:09:45;;;;;;;8.23;3.55;;;0.80;99.90;;;;;;5076770;28;20459;-74
2023/04/04 05:12:11;;;;;;;6.18;3.17;;;0.80;99.90;;;;;;5051065;28;20040;-74
2023/04/04 05:14:37;;;;;;;8.02;3.50;;;0.80;99.90;;;;;;5067902;28;20040;-74
2023/04/04 05:17:02;;;;;;;7.93;3.30;;;0.80;99.90;;;;;;5072779;28;20485;-74
2023/04/04 05:19:28;;;;;;;6.97;2.97;;;0.80;99.90;;;;;;5057319;28;20400;-74
2023/04/04 05:21:53;;;;;;;9.45;3.72;;;0.80;99.90;;;;;;5056296;28;20040;-74
2023/04/04 05:24:19;;;;;;;7.20;3.22;;;0.80;99.90;;;;;;5052717;28;20033;-74
2023/04/04 05:26:45;;;;;;;8.52;3.20;;;0.70;99.90;;;;;;5047772;28;20435;-74
2023/04/04 05:29:11;;;;;;;8.40;3.28;;;0.70;99.90;;;;;;5052083;28;20044;-74
2023/04/04 05:31:37;;;;;;;8.20;3.72;;;0.70;99.90;;;;;;5053884;28;20401;-74
2023/04/04 05:34:07;;;;;;;9.63;3.85;;;0.60;99.90;;;;;;5054639;28;20041;-74
2023/04/04 05:36:36;;;;;;;8.68;3.78;;;0.70;99.90;;;;;;5053713;28;20041;-74
2023/04/04 05:39:05;;;;;;;8.45;3.63;;;0.70;99.90;;;;;;5069432;28;20427;-74
2023/04/04 05:41:32;;;;;;;8.57;4.03;;;0.70;99.90;;;;;;5057116;28;20041;-74
2023/04/04 05:43:58;;;;;;;6.72;3.20;;;0.70;99.90;;;;;;5051417;28;20041;-74
2023/04/04 05:46:24;;;;;;;6.35;3.25;;;0.70;99.90;;;;;;5079750;28;20117;-74
2023/04/04 05:48:50;;;;;;;6.75;3.20;;;0.80;99.90;;;;;;5042503;28;20051;-75
2023/04/04 05:51:17;;;;;;;7.53;3.85;;;0.80;99.90;;;;;;5036590;28;20061;-74
2023/04/04 05:53:44;;;;;;;8.32;3.53;;;0.90;99.90;;;;;;5052836;28;20041;-75
2023/04/04 05:56:10;;;;;;;8.65;3.63;;;0.80;99.90;;;;;;5053283;28;20044;-75
2023/04/04 05:58:36;;;;;;;8.95;3.83;;;0.80;99.90;;;;;;5067656;28;20122;-75
2023/04/04 06:01:07;;;;;;;7.97;3.67;;;0.80;99.90;;;;;;5056183;28;20124;-75
2023/04/04 06:03:33;;;;;;;8.80;4.10;;;0.80;99.90;;;;;;5076457;28;20123;-75
2023/04/04 06:06:00;;;;;;;10.35;3.97;;;0.80;99.90;;;;;;5036740;28;20125;-75
2023/04/04 06:08:25;;;;;;;8.00;3.70;;;0.70;99.90;;;;;;5058056;28;20040;-77
2023/04/04 06:10:51;;;;;;;8.18;3.80;;;0.70;99.90;;;;;;5041002;28;20040;-75
2023/04/04 06:13:16;;;;;;;11.70;4.65;;;0.70;99.90;;;;;;5059509;28;20048;-76
2023/04/04 06:15:42;;;;;;;8.25;4.10;;;0.70;99.90;;;;;;5055334;28;20044;-76
2023/04/04 06:18:08;;;;;;;8.20;4.30;;;0.70;99.90;;;;;;5069133;28;20090;-75
2023/04/04 06:20:33;;;;;;;9.73;3.65;;;0.70;99.90;;;;;;5070865;28;20028;-75
2023/04/04 06:23:03;;;;;;;6.78;3.60;;;0.70;99.90;;;;;;5065529;28;20045;-75
2023/04/04 06:25:29;;;;;;;6.93;3.70;;;0.80;99.90;;;;;;5043766;28;20037;-75
2023/04/04 06:27:55;;;;;;;7.68;3.60;;;0.80;99.90;;;;;;5059928;28;20044;-76
2023/04/04 06:30:20;;;;;;;7.97;4.10;;;0.90;99.90;;;;;;5047744;28;20040;-76
2023/04/04 06:32:46;;;;;;;13.25;4.63;;;0.90;99.90;;;;;;5054153;28;20401;-76
2023/04/04 06:35:11;;;;;;;9.77;3.85;;;0.90;99.90;;;;;;5062191;28;20496;-76
2023/04/04 06:37:37;;;;;;;9.32;4.35;;;1.00;99.90;;;;;;5060283;28;20098;-77
2023/04/04 06:40:03;;;;;;;6.97;3.45;;;1.10;99.90;;;;;;5069133;28;20033;-76
2023/04/04 06:42:28;;;;;;;10.10;3.75;;;1.20;99.90;;;;;;5050939;28;20071;-76
2023/04/04 06:44:54;;;;;;;7.32;3.83;;;1.30;99.90;;;;;;5046636;28;20454;-76
2023/04/04 06:47:20;;;;;;;7.95;3.63;;;1.40;99.90;;;;;;5043619;28;20461;-77
2023/04/04 06:49:45;;;;;;;8.57;3.95;;;1.40;99.90;;;;;;5057599;28;20087;-77
2023/04/04 06:52:11;;;;;;;6.93;3.60;;;1.50;99.90;;;;;;5064345;28;20525;-77
2023/04/04 06:54:36;;;;;;;10.25;3.70;;;1.70;99.90;;;;;;5072276;28;20047;-77
2023/04/04 06:57:02;;;;;;;7.93;3.63;;;1.70;99.90;;;;;;5063300;28;20037;-76
2023/04/04 06:59:28;;;;;;;8.93;3.65;;;1.80;99.90;;;;;;5071531;28;20040;-77
2023/04/04 07:01:53;;;;;;;7.68;3.67;;;1.90;99.90;;;;;;5051269;28;20040;-76
2023/04/04 07:04:19;;;;;;;7.30;3.05;;;2.10;99.90;;;;;;5063704;28;20041;-77
2023/04/04 07:06:44;;;;;;;7.53;2.80;;;2.20;99.90;;;;;;5071642;28;20125;-77
2023/04/04 07:09:10;;;;;;;5.82;2.60;;;2.30;99.90;;;;;;5060582;28;20051;-77
2023/04/04 07:11:37;;;;;;;10.75;3.00;;;2.40;99.90;;;;;;5035010;28;20045;-75
2023/04/04 07:14:02;;;;;;;8.07;3.10;;;2.50;99.90;;;;;;5067995;28;20493;-74
2023/04/04 07:16:28;;;;;;;8.07;3.00;;;2.50;99.90;;;;;;5068834;28;20084;-74
2023/04/04 07:18:53;;;;;;;7.72;2.85;;;2.60;99.90;;;;;;5073129;28;20028;-74
2023/04/04 07:21:19;;;;;;;7.28;2.60;;;2.70;99.90;;;;;;5070675;28;20037;-74
2023/04/04 07:23:45;;;;;;;6.40;2.83;;;2.80;99.90;;;;;;5069432;28;20045;-75
2023/04/04 07:26:10;;;;;;;7.43;2.60;;;2.90;99.90;;;;;;5035759;28;20055;-74
2023/04/04 07:28:36;;;;;;;6.88;2.33;;;2.90;99.90;;;;;;5074144;28;20078;-74
2023/04/04 07:31:02;;;;;;;6.22;2.72;;;3.00;99.90;;;;;;5068108;28;20112;-74
2023/04/04 07:33:28;;;;;;;7.63;2.70;;;3.10;99.90;;;;;;5065172;28;20098;-76
2023/04/04 07:35:53;;;;;;;7.45;2.80;;;3.20;99.90;;;;;;5049620;28;20481;-76
2023/04/04 07:38:19;;;;;;;9.43;2.70;;;3.20;99.90;;;;;;5069904;28;20470;-76
2023/04/04 07:40:47;;;;;;;6.00;2.40;;;3.30;99.90;;;;;;5055793;28;20403;-76
2023/04/04 07:43:12;;;;;;;7.32;2.20;;;3.40;99.90;;;;;;5054310;28;20045;-77
2023/04/04 07:45:38;;;;;;;7.10;2.50;;;3.50;99.90;;;;;;5057349;28;20042;-76
2023/04/04 07:48:04;;;;;;;6.05;2.58;;;3.70;99.90;;;;;;5074450;28;20040;-76
2023/04/04 07:50:29;;;;;;;6.70;2.25;;;3.80;99.90;;;;;;5066333;28;20051;-75
2023/04/04 07:52:57;;;;;;;7.07;2.70;;;3.80;99.90;;;;;;5060414;28;20037;-76
2023/04/04 07:55:26;;;;;;;6.57;2.35;;;3.80;99.90;;;;;;5049182;28;20124;-76
2023/04/04 07:57:53;;;;;;;8.00;2.60;;;3.90;99.90;;;;;;5046405;28;20037;-76
2023/04/04 08:00:20;;;;;;;5.45;2.35;;;4.00;99.90;;;;;;5058611;28;20516;-76
2023/04/04 08:02:51;;;;;;;6.88;2.55;;;4.10;99.90;;;;;;5039338;28;20040;-76
2023/04/04 08:05:17;;;;;;;6.97;2.85;;;4.30;99.90;;;;;;5064787;28;20051;-76
2023/04/04 08:07:42;;;;;;;7.15;2.40;;;4.50;99.90;;;;;;5060998;28;20036;-76
2023/04/04 08:10:08;;;;;;;5.22;2.00;;;4.60;99.90;;;;;;5057618;28;20056;-76
2023/04/04 08:12:34;;;;;;;5.63;2.05;;;4.60;99.90;;;;;;5076925;28;20028;-76
2023/04/04 08:15:00;;;;;;;7.28;2.72;;;4.60;99.90;;;;;;5076572;28;20549;-77
2023/04/04 08:17:27;;;;;;;7.95;2.85;;;4.70;99.90;;;;;;5049172;28;20043;-76
2023/04/04 08:19:52;;;;;;;6.40;2.20;;;4.80;99.90;;;;;;5056414;28;20037;-77
2023/04/04 08:22:18;;;;;;;7.32;1.90;;;4.80;99.90;;;;;;5067886;28;20048;-77
2023/04/04 08:24:44;;;;;;;7.97;2.38;;;4.70;99.90;;;;;;5037823;28;20128;-78
2023/04/04 08:27:10;;;;;;;6.47;2.10;;;4.80;99.90;;;;;;5053848;28;20036;-77
2023/04/04 08:29:35;;;;;;;4.82;2.20;;;4.80;99.90;;;;;;5051932;28;20042;-77
2023/04/04 08:32:01;;;;;;;9.05;2.50;;;4.90;99.90;;;;;;5055731;28;20404;-77
2023/04/04 08:34:27;;;;;;;4.40;1.77;;;5.00;99.90;;;;;;5066879;28;20037;-77
2023/04/04 08:36:53;;;;;;;7.95;2.50;;;5.10;99.90;;;;;;5052066;28;20064;-77
2023/04/04 08:39:18;;;;;;;7.78;1.90;;;5.10;99.90;;;;;;5053944;28;20033;-77
2023/04/04 08:41:45;;;;;;;7.13;2.03;;;5.20;99.90;;;;;;5051783;28;20123;-77
2023/04/04 08:44:20;;;;;;;4.70;1.70;;;5.30;99.90;;;;;;5051355;28;20053;-78
2023/04/04 08:46:48;;;;;;;4.38;1.67;;;5.40;99.90;;;;;;5052744;28;20053;-77
2023/04/04 08:49:16;;;;;;;5.85;1.85;;;5.50;99.90;;;;;;5053569;28;20098;-77
2023/04/04 08:51:43;;;;;;;5.88;1.90;;;5.50;99.90;;;;;;5065746;28;20501;-77
2023/04/04 08:54:11;;;;;;;5.47;1.88;;;5.70;99.90;;;;;;5065729;28;20154;-77
2023/04/04 08:56:37;;;;;;;6.82;1.80;;;5.70;99.90;;;;;;5057565;28;20120;-77
2023/04/04 08:59:02;;;;;;;9.95;1.92;;;5.80;99.90;;;;;;5040488;28;20565;-77
2023/04/04 09:01:28;;;;;;;4.88;2.00;;;5.90;99.90;;;;;;5068091;28;20400;-77
2023/04/04 09:03:56;;;;;;;5.25;1.85;;;6.00;99.90;;;;;;5041556;28;20074;-78
2023/04/04 09:06:23;;;;;;;4.03;1.58;;;6.00;99.90;;;;;;5067081;28;20098;-77
2023/04/04 09:08:50;;;;;;;6.22;1.83;;;6.10;99.90;;;;;;5040337;28;20393;-77
2023/04/04 09:11:18;;;;;;;4.43;1.83;;;6.20;99.90;;;;;;5041009;28;20052;-77
2023/04/04 09:13:44;;;;;;;5.30;1.90;;;6.20;99.90;;;;;;5087823;28;20052;-77
2023/04/04 09:16:10;;;;;;;8.15;2.45;;;6.30;99.90;;;;;;5058199;28;20047;-77
2023/04/04 09:18:36;;;;;;;6.93;2.03;;;6.40;99.90;;;;;;5078163;28;20040;-77
2023/04/04 09:21:10;;;;;;;6.40;1.90;;;6.50;99.90;;;;;;5054915;28;20417;-77
2023/04/04 09:23:36;;;;;;;4.95;1.70;;;6.70;99.90;;;;;;5066715;28;20493;-78
2023/04/04 09:26:02;;;;;;;7.00;2.47;;;6.80;99.90;;;;;;5065755;28;20033;-78
2023/04/04 09:28:28;;;;;;;6.32;2.08;;;7.00;99.90;;;;;;5059770;28;20489;-78
2023/04/04 09:30:53;;;;;;;6.03;2.10;;;7.00;99.90;;;;;;5068516;28;20044;-78
2023/04/04 09:33:22;;;;;;;6.13;2.00;;;7.00;99.90;;;;;;5057488;28;20159;-78
2023/04/04 09:36:01;;;;;;;5.25;1.90;;;7.20;99.90;;;;;;5049014;28;20040;-78
2023/04/04 09:38:28;;;;;;;6.78;2.20;;;7.30;99.90;;;;;;5053625;28;20083;-78
2023/04/04 09:40:54;;;;;;;6.88;2.20;;;7.30;99.90;;;;;;5057502;28;20086;-79
2023/04/04 09:43:22;;;;;;;7.88;1.67;;;7.30;97.50;;;;;;5052743;28;20120;-78
2023/04/04 09:45:48;;;;;;;6.05;1.95;;;7.30;99.30;;;;;;5052210;28;20501;-78
2023/04/04 09:48:26;;;;;;;6.78;2.17;;;7.30;99.90;;;;;;5068018;28;20133;-78
2023/04/04 09:50:51;;;;;;;7.68;1.80;;;7.50;99.90;;;;;;5057261;28;20061;-78
2023/04/04 09:53:17;;;;;;;7.32;2.05;;;7.60;99.90;;;;;;5067960;28;20515;-79
2023/04/04 09:55:49;;;;;;;5.38;1.95;;;7.70;97.50;;;;;;5064642;28;20412;-79
2023/04/04 09:58:17;;;;;;;6.70;2.25;;;7.80;99.90;;;;;;5053085;28;20133;-79
2023/04/04 10:00:47;;;;;;;8.20;2.33;;;7.90;96.20;;;;;;5075709;28;20032;-79
2023/04/04 10:03:17;;;;;;;8.25;2.10;;;7.90;92.90;;;;;;5073100;28;20040;-79
2023/04/04 10:05:46;;;;;;;5.68;2.08;;;7.80;92.50;;;;;;5056112;28;20357;-79
2023/04/04 10:08:22;;;;;;;6.25;1.73;;;7.90;99.90;;;;;;5046819;28;20050;-79
2023/04/04 10:10:48;;;;;;;6.50;1.90;;;8.10;97.30;;;;;;5057694;28;20048;-79
2023/04/04 10:13:24;;;;;;;10.48;2.05;;;8.20;99.90;;;;;;5035740;28;20037;-67
2023/04/04 10:16:09;;;;;;;7.10;2.67;;;8.30;99.90;;;;;;5056880;28;20037;-67
2023/04/04 10:18:35;;;;;;;6.93;2.20;;;8.20;98.00;;;;;;5052049;28;20457;-67
2023/04/04 10:21:03;;;;;;;6.80;2.10;;;8.20;98.10;;;;;;5047534;28;20135;-67
2023/04/04 10:23:29;;;;;;;7.57;2.38;;;8.30;99.90;;;;;;5071345;28;20090;-67
2023/04/04 10:25:55;;;;;;;5.90;1.92;;;8.30;98.40;;;;;;5041006;28;20041;-67
2023/04/04 10:28:22;;;;;;;6.32;2.22;;;8.50;99.90;;;;;;5044836;28;20090;-67
2023/04/04 10:31:03;;;;;;;5.57;2.00;;;8.60;98.90;;;;;;5060736;28;20037;-67
2023/04/04 10:33:43;;;;;;;7.32;2.53;;;8.60;99.90;;;;;;5051953;28;20037;-67
2023/04/04 10:36:11;;;;;;;7.22;2.20;;;8.60;99.60;;;;;;5052257;28;20044;-67
2023/04/04 10:38:43;;;;;;;5.38;1.95;;;8.80;99.90;;;;;;5048740;28;20032;-67
2023/04/04 10:41:10;;;;;;;;;;;8.80;99.50;;;;;;5062942;28;20499;-67
2023/04/04 10:43:40;;;;;;;6.97;2.58;;;9.00;97.50;;;;;;5053520;28;20296;-67
2023/04/04 10:46:18;;;;;;;5.18;2.33;;;8.90;97.90;;;;;;5057517;28;20072;-67
2023/04/04 10:48:44;;;;;;;6.25;2.17;;;9.00;97.90;;;;;;5056966;28;20048;-67
2023/04/04 10:51:14;;;;;;;5.53;2.50;;;9.00;98.50;;;;;;5063022;28;20049;-67
2023/04/04 10:53:41;;;;;;;7.30;2.30;;;9.10;96.80;;;;;;5061751;28;20071;-67
2023/04/04 10:56:07;;;;;;;8.52;2.10;;;9.10;98.50;;;;;;5058554;28;20112;-67
2023/04/04 10:58:39;;;;;;;6.50;2.13;;;9.10;99.60;;;;;;5049135;28;20033;-67
2023/04/04 11:01:06;;;;;;;5.75;2.05;;;9.20;98.40;;;;;;5063811;28;20047;-67
2023/04/04 11:03:55;;;;;;;8.65;2.22;;;9.30;99.20;;;;;;5051049;28;20033;-67
2023/04/04 11:06:23;;;;;;;8.10;2.13;;;9.30;94.10;;;;;;5065670;28;20036;-67
2023/04/04 11:08:58;;;;;;;6.07;2.08;;;9.50;95.30;;;;;;5062663;28;20032;-79
2023/04/04 11:11:25;;;;;;;6.90;2.13;;;9.40;93.30;;;;;;5054282;28;20043;-79
2023/04/04 11:14:00;;;;;;;8.40;2.83;;;9.20;94.60;;;;;;5052897;28;20032;-80
2023/04/04 11:16:45;;;;;;;6.68;2.15;;;9.10;88.10;;;;;;5049965;28;20044;-79
2023/04/04 11:19:13;;;;;;;7.13;2.33;;;9.30;93.90;;;;;;5069211;28;20409;-80
2023/04/04 11:21:39;;;;;;;5.50;2.20;;;9.30;93.20;;;;;;5060363;28;20045;-79
2023/04/04 11:24:05;;;;;;;6.80;2.13;;;9.10;92.50;;;;;;5060447;28;20047;-79
2023/04/04 11:26:30;;;;;;;5.90;2.00;;;9.10;95.80;;;;;;5034827;28;20041;-79
2023/04/04 11:29:03;;;;;;;5.63;2.17;;;9.10;92.90;;;;;;5047121;28;20048;-79
2023/04/04 11:31:33;;;;;;;7.20;2.78;;;9.20;94.60;;;;;;5051730;28;20511;-79
2023/04/04 11:34:06;;;;;;;6.97;2.30;;;9.10;85.50;;;;;;5049266;28;20524;-79
2023/04/04 11:36:34;;;;;;;6.15;2.60;;;9.10;88.10;;;;;;5050855;28;20091;-79
2023/04/04 11:39:14;;;;;;;6.82;1.90;;;9.20;89.10;;;;;;5037224;28;20127;-79
2023/04/04 11:41:43;;;;;;;5.90;2.15;;;9.20;90.30;;;;;;5054109;28;20442;-79
2023/04/04 11:44:10;;;;;;;5.20;1.80;;;9.30;89.10;;;;;;5065885;28;20393;-79
2023/04/04 11:46:36;;;;;;;5.85;2.15;;;9.20;77.80;;;;;;5049799;28;20079;-79
2023/04/04 11:49:02;;;;;;;7.15;2.30;;;9.20;78.50;;;;;;5074135;28;20488;-79
2023/04/04 11:51:30;;;;;;;3.80;1.50;;;9.40;90.10;;;;;;5049085;28;20053;-79
2023/04/04 11:53:56;;;;;;;5.88;2.45;;;9.40;88.30;;;;;;5054709;28;20076;-79
2023/04/04 11:56:23;;;;;;;6.35;2.17;;;9.30;86.20;;;;;;5056242;28;20068;-80
2023/04/04 11:58:50;;;;;;;5.78;1.92;;;9.20;83.10;;;;;;5035041;28;20037;-80
2023/04/04 12:01:16;;;;;;;6.35;1.90;;;9.30;87.20;;;;;;5040704;28;20048;-80
2023/04/04 12:03:42;;;;;;;6.47;1.98;;;9.30;76.10;;;;;;5044801;28;20497;-79
2023/04/04 12:06:10;;;;;;;6.60;2.03;;;9.20;76.80;;;;;;5066687;28;20114;-80
2023/04/04 12:08:36;;;;;;;6.15;2.00;;;9.20;84.30;;;;;;5053214;28;20052;-79
2023/04/04 12:11:10;;;;;;;7.72;1.85;;;9.20;83.50;;;;;;5043573;28;20033;-80
2023/04/04 12:13:43;;;;;;;4.85;1.70;;;9.40;80.70;;;;;;5055331;28;20382;-79
2023/04/04 12:16:09;;;;;;;5.93;2.15;;;9.50;81.40;;;;;;5035344;28;20040;-80
2023/04/04 12:18:36;;;;;;;6.35;1.85;;;9.50;77.20;;;;;;5061178;28;20053;-79
2023/04/04 12:21:02;;;;;;;6.60;2.38;;;9.30;77.20;;;;;;5063661;28;20537;-68
2023/04/04 12:23:33;;;;;;;6.55;2.10;;;9.40;84.80;;;;;;5050343;28;20116;-68
2023/04/04 12:26:00;;;;;;;6.15;2.10;;;9.40;88.00;;;;;;5060220;28;20036;-67
2023/04/04 12:28:26;;;;;;;5.43;2.88;;;9.30;82.10;;;;;;5051021;28;20052;-67
2023/04/04 12:30:52;;;;;;;8.27;2.33;;;9.50;84.30;;;;;;5051958;28;20045;-67
2023/04/04 12:33:18;;;;;;;6.70;2.10;;;9.60;81.10;;;;;;5066141;28;20054;-67
2023/04/04 12:35:51;;;;;;;5.03;1.85;;;9.50;84.40;;;;;;5066948;28;20037;-67
2023/04/04 12:38:17;;;;;;;6.40;2.22;;;9.60;80.80;;;;;;5068666;28;20063;-67
2023/04/04 12:40:43;;;;;;;4.55;1.83;;;9.60;79.60;;;;;;5062384;28;20704;-67
2023/04/04 12:43:16;;;;;;;8.00;2.63;;;9.50;81.20;;;;;;5070644;28;20520;-68
2023/04/04 12:45:43;;;;;;;5.68;2.20;;;9.40;76.90;;;;;;5057614;28;20037;-68
2023/04/04 12:48:13;;;;;;;6.40;2.03;;;9.50;83.80;;;;;;5066063;28;20505;-68
2023/04/04 12:50:59;;;;;;;6.63;2.60;;;9.60;83.00;;;;;;5037569;28;20037;-68
2023/04/04 12:53:28;;;;;;;6.38;2.10;;;9.50;77.10;;;;;;5036852;28;20041;-68
2023/04/04 12:56:03;;;;;;;4.90;2.05;;;9.60;81.20;;;;;;5065221;28;20071;-67
2023/04/04 12:58:29;;;;;;;5.88;2.30;;;9.50;76.20;;;;;;5051326;28;20056;-68